createdAt,value
2023-07-03T00:00:19.606Z,21.00
2023-07-03T00:00:43.741Z,21.00
2023-07-03T00:01:07.314Z,21.00
2023-07-03T00:01:30.159Z,21.00
2023-07-03T00:01:52.973Z,21.00
2023-07-03T00:02:16.093Z,21.00
2023-07-03T00:02:39.763Z,21.00
2023-07-03T00:03:03.371Z,21.00
2023-07-03T00:03:26.299Z,21.00
2023-07-03T00:03:53.042Z,21.00
2023-07-03T00:04:16.390Z,21.00
2023-07-03T00:04:39.669Z,20.60
2023-07-03T00:05:04.762Z,21.00
2023-07-03T00:05:28.121Z,21.00
2023-07-03T00:05:51.212Z,21.00
2023-07-03T00:06:16.512Z,21.00
2023-07-03T00:06:39.291Z,21.00
2023-07-03T00:07:02.083Z,21.00
2023-07-03T00:07:24.814Z,21.00
2023-07-03T00:07:48.347Z,21.00
2023-07-03T00:08:11.541Z,21.00
2023-07-03T00:08:34.802Z,21.10
2023-07-03T00:08:57.554Z,21.00
2023-07-03T00:09:20.355Z,21.10
2023-07-03T00:09:43.226Z,21.10
2023-07-03T00:10:07.961Z,21.10
2023-07-03T00:10:33.587Z,21.10
2023-07-03T00:11:01.061Z,21.10
2023-07-03T00:11:23.925Z,21.10
2023-07-03T00:11:46.800Z,21.10
2023-07-03T00:12:11.433Z,21.10
2023-07-03T00:12:34.209Z,21.10
2023-07-03T00:13:00.123Z,21.10
2023-07-03T00:13:22.918Z,21.10
2023-07-03T00:13:45.831Z,21.10
2023-07-03T00:14:08.829Z,21.10
2023-07-03T00:14:31.619Z,21.20
2023-07-03T00:14:56.862Z,21.10
2023-07-03T00:15:19.906Z,21.10
2023-07-03T00:15:43.882Z,21.10
2023-07-03T00:16:06.896Z,21.10
2023-07-03T00:16:29.829Z,21.10
2023-07-03T00:16:52.801Z,21.10
2023-07-03T00:17:15.756Z,21.10
2023-07-03T00:17:39.752Z,21.10
2023-07-03T00:18:02.896Z,21.10
2023-07-03T00:18:25.706Z,21.00
2023-07-03T00:18:51.691Z,21.00
2023-07-03T00:19:15.116Z,21.10
2023-07-03T00:19:37.865Z,21.10
2023-07-03T00:20:00.583Z,21.00
2023-07-03T00:20:23.309Z,21.10
2023-07-03T00:20:46.931Z,21.00
2023-07-03T00:21:09.879Z,21.10
2023-07-03T00:21:44.652Z,21.10
2023-07-03T00:22:07.590Z,21.00
2023-07-03T00:22:30.401Z,21.00
2023-07-03T00:22:54.136Z,21.00
2023-07-03T00:23:16.918Z,21.00
2023-07-03T00:23:39.743Z,21.00
2023-07-03T00:24:02.471Z,21.00
2023-07-03T00:24:25.220Z,21.00
2023-07-03T00:24:48.095Z,21.00
2023-07-03T00:25:11.062Z,21.00
2023-07-03T00:25:34.244Z,21.00
2023-07-03T00:25:57.069Z,21.00
2023-07-03T00:26:22.793Z,21.00
2023-07-03T00:26:45.651Z,21.00
2023-07-03T00:27:08.409Z,21.00
2023-07-03T00:27:31.198Z,21.00
2023-07-03T00:27:55.436Z,20.90
2023-07-03T00:28:18.131Z,20.90
2023-07-03T00:28:40.945Z,20.90
2023-07-03T00:29:03.847Z,20.90
2023-07-03T00:29:30.482Z,20.90
2023-07-03T00:29:54.138Z,20.90
2023-07-03T00:30:17.183Z,20.90
2023-07-03T00:30:39.932Z,20.90
2023-07-03T00:31:02.691Z,20.90
2023-07-03T00:31:25.607Z,21.00
2023-07-03T00:31:48.473Z,21.00
2023-07-03T00:32:11.338Z,20.90
2023-07-03T00:32:34.285Z,20.90
2023-07-03T00:32:57.497Z,20.90
2023-07-03T00:33:20.436Z,20.90
2023-07-03T00:33:43.252Z,20.90
2023-07-03T00:34:05.973Z,20.90
2023-07-03T00:34:29.718Z,20.90
2023-07-03T00:34:52.449Z,20.90
2023-07-03T00:35:15.404Z,20.90
2023-07-03T00:35:38.295Z,20.90
2023-07-03T00:36:01.132Z,20.90
2023-07-03T00:36:24.003Z,20.90
2023-07-03T00:36:48.701Z,20.90
2023-07-03T00:37:11.574Z,20.90
2023-07-03T00:37:34.505Z,21.00
2023-07-03T00:37:57.325Z,20.90
2023-07-03T00:38:20.097Z,20.90
2023-07-03T00:38:42.899Z,20.90
2023-07-03T00:39:05.834Z,20.90
2023-07-03T00:39:28.765Z,20.90
2023-07-03T00:39:51.475Z,20.90
2023-07-03T00:40:14.947Z,21.00
2023-07-03T00:40:37.751Z,21.00
2023-07-03T00:41:00.589Z,20.90
2023-07-03T00:41:23.416Z,20.90
2023-07-03T00:41:46.263Z,20.90
2023-07-03T00:42:09.157Z,20.90
2023-07-03T00:42:32.030Z,20.90
2023-07-03T00:42:54.930Z,20.80
2023-07-03T00:43:18.951Z,20.80
2023-07-03T00:43:44.713Z,20.80
2023-07-03T00:44:10.265Z,20.80
2023-07-03T00:44:33.099Z,20.70
2023-07-03T00:44:55.946Z,20.70
2023-07-03T00:45:19.586Z,20.70
2023-07-03T00:45:42.876Z,20.70
2023-07-03T00:46:05.699Z,20.70
2023-07-03T00:46:28.524Z,20.60
2023-07-03T00:46:51.697Z,20.60
2023-07-03T00:47:14.693Z,20.60
2023-07-03T00:47:38.533Z,20.60
2023-07-03T00:48:01.928Z,20.50
2023-07-03T00:48:24.903Z,20.50
2023-07-03T00:48:47.836Z,20.60
2023-07-03T00:49:11.257Z,20.50
2023-07-03T00:49:33.965Z,20.60
2023-07-03T00:49:56.831Z,20.50
2023-07-03T00:50:20.009Z,20.50
2023-07-03T00:50:42.874Z,20.50
2023-07-03T00:51:05.786Z,20.50
2023-07-03T00:51:29.182Z,20.50
2023-07-03T00:51:53.983Z,20.50
2023-07-03T00:52:17.137Z,20.60
2023-07-03T00:52:40.026Z,20.50
2023-07-03T00:53:04.641Z,20.60
2023-07-03T00:53:27.451Z,20.60
2023-07-03T00:53:50.247Z,20.60
2023-07-03T00:54:13.034Z,20.60
2023-07-03T00:54:35.779Z,20.60
2023-07-03T00:54:59.431Z,20.60
2023-07-03T00:55:22.377Z,20.60
2023-07-03T00:55:45.266Z,20.60
2023-07-03T00:56:08.254Z,20.60
2023-07-03T00:56:32.059Z,20.60
2023-07-03T00:56:54.831Z,20.60
2023-07-03T00:57:17.734Z,20.60
2023-07-03T00:57:41.326Z,20.60
2023-07-03T00:58:04.141Z,20.60
2023-07-03T00:58:27.692Z,20.60
2023-07-03T00:58:50.452Z,20.60
2023-07-03T00:59:13.278Z,20.60
2023-07-03T00:59:36.208Z,20.40
2023-07-03T00:59:59.139Z,20.70
2023-07-03T01:00:23.515Z,20.70
2023-07-03T01:00:48.335Z,20.70
2023-07-03T01:01:16.901Z,20.70
2023-07-03T01:01:45.072Z,20.70
2023-07-03T01:02:11.302Z,20.70
2023-07-03T01:02:37.303Z,20.80
2023-07-03T01:03:03.157Z,20.80
2023-07-03T01:03:28.241Z,20.80
2023-07-03T01:03:53.664Z,20.80
2023-07-03T01:04:18.911Z,20.80
2023-07-03T01:04:45.305Z,20.80
2023-07-03T01:05:11.197Z,20.80
2023-07-03T01:05:35.634Z,20.80
2023-07-03T01:05:58.796Z,20.80
2023-07-03T01:06:26.378Z,20.80
2023-07-03T01:06:52.702Z,20.80
2023-07-03T01:07:19.909Z,20.80
2023-07-03T01:07:42.973Z,20.80
2023-07-03T01:08:05.829Z,20.80
2023-07-03T01:08:28.553Z,20.80
2023-07-03T01:08:53.338Z,20.80
2023-07-03T01:09:17.560Z,20.80
2023-07-03T01:09:46.333Z,20.80
2023-07-03T01:10:10.801Z,20.80
2023-07-03T01:10:33.585Z,20.70
2023-07-03T01:10:56.468Z,20.70
2023-07-03T01:11:19.395Z,20.70
2023-07-03T01:11:42.283Z,20.70
2023-07-03T01:12:07.584Z,20.70
2023-07-03T01:12:31.745Z,20.70
2023-07-03T01:12:56.105Z,20.60
2023-07-03T01:13:18.950Z,20.60
2023-07-03T01:13:41.731Z,20.70
2023-07-03T01:14:04.637Z,20.60
2023-07-03T01:14:27.470Z,20.60
2023-07-03T01:14:50.254Z,20.60
2023-07-03T01:15:14.171Z,20.60
2023-07-03T01:15:39.267Z,20.60
2023-07-03T01:16:02.483Z,20.60
2023-07-03T01:16:25.405Z,20.60
2023-07-03T01:16:49.432Z,20.60
2023-07-03T01:17:12.389Z,20.60
2023-07-03T01:17:35.233Z,20.60
2023-07-03T01:17:58.959Z,20.60
2023-07-03T01:18:21.961Z,20.60
2023-07-03T01:18:44.993Z,20.60
2023-07-03T01:19:11.476Z,20.60
2023-07-03T01:19:34.304Z,20.60
2023-07-03T01:19:57.130Z,20.60
2023-07-03T01:20:20.459Z,20.60
2023-07-03T01:20:45.333Z,20.60
2023-07-03T01:21:10.908Z,20.60
2023-07-03T01:21:38.262Z,20.50
2023-07-03T01:22:03.560Z,20.50
2023-07-03T01:22:29.882Z,20.50
2023-07-03T01:22:57.409Z,20.50
2023-07-03T01:23:23.354Z,20.50
2023-07-03T01:23:48.910Z,20.50
2023-07-03T01:24:13.259Z,20.50
2023-07-03T01:24:41.850Z,20.50
2023-07-03T01:25:06.921Z,20.50
2023-07-03T01:25:29.947Z,20.50
2023-07-03T01:25:53.056Z,20.50
2023-07-03T01:26:16.395Z,20.50
2023-07-03T01:26:39.165Z,20.40
2023-07-03T01:27:02.796Z,20.50
2023-07-03T01:27:38.021Z,20.50
2023-07-03T01:28:00.859Z,20.40
2023-07-03T01:28:24.183Z,20.50
2023-07-03T01:28:49.539Z,20.50
2023-07-03T01:29:12.434Z,20.50
2023-07-03T01:29:35.259Z,20.50
2023-07-03T01:29:58.031Z,20.50
2023-07-03T01:30:21.185Z,20.50
2023-07-03T01:30:44.123Z,20.50
2023-07-03T01:31:09.207Z,20.50
2023-07-03T01:31:33.529Z,20.50
2023-07-03T01:31:56.413Z,20.50
2023-07-03T01:32:21.164Z,20.60
2023-07-03T01:32:44.616Z,20.60
2023-07-03T01:33:07.732Z,20.60
2023-07-03T01:33:32.658Z,20.60
2023-07-03T01:33:55.900Z,20.60
2023-07-03T01:34:18.619Z,20.60
2023-07-03T01:34:46.906Z,20.60
2023-07-03T01:35:10.290Z,20.60
2023-07-03T01:35:36.240Z,20.70
2023-07-03T01:35:58.992Z,20.70
2023-07-03T01:36:21.770Z,20.60
2023-07-03T01:36:45.079Z,20.60
2023-07-03T01:37:08.095Z,20.60
2023-07-03T01:37:31.271Z,20.60
2023-07-03T01:37:54.319Z,20.60
2023-07-03T01:38:17.283Z,20.60
2023-07-03T01:38:41.500Z,20.60
2023-07-03T01:39:04.545Z,20.60
2023-07-03T01:39:27.891Z,20.60
2023-07-03T01:39:52.874Z,20.60
2023-07-03T01:40:17.396Z,20.60
2023-07-03T01:40:40.215Z,20.50
2023-07-03T01:41:03.590Z,20.50
2023-07-03T01:41:26.329Z,20.50
2023-07-03T01:41:49.220Z,20.60
2023-07-03T01:42:12.153Z,20.60
2023-07-03T01:42:37.352Z,20.60
2023-07-03T01:43:00.149Z,20.60
2023-07-03T01:43:22.929Z,20.60
2023-07-03T01:43:45.956Z,20.60
2023-07-03T01:44:08.815Z,20.60
2023-07-03T01:44:31.575Z,20.60
2023-07-03T01:44:54.356Z,20.60
2023-07-03T01:45:17.429Z,20.60
2023-07-03T01:45:43.054Z,20.60
2023-07-03T01:46:06.262Z,20.60
2023-07-03T01:46:29.380Z,20.60
2023-07-03T01:46:52.444Z,20.60
2023-07-03T01:47:15.572Z,20.50
2023-07-03T01:47:38.496Z,20.60
2023-07-03T01:48:01.378Z,20.60
2023-07-03T01:48:25.505Z,20.60
2023-07-03T01:48:48.374Z,20.60
2023-07-03T01:49:12.990Z,20.50
2023-07-03T01:49:35.903Z,20.60
2023-07-03T01:49:58.670Z,20.60
2023-07-03T01:50:23.114Z,20.60
2023-07-03T01:50:46.774Z,20.50
2023-07-03T01:51:12.875Z,20.60
2023-07-03T01:51:38.730Z,20.60
2023-07-03T01:52:05.855Z,20.50
2023-07-03T01:52:31.921Z,20.50
2023-07-03T01:52:56.840Z,20.50
2023-07-03T01:53:22.941Z,20.50
2023-07-03T01:53:47.967Z,20.50
2023-07-03T01:54:13.276Z,20.50
2023-07-03T01:54:42.321Z,20.50
2023-07-03T01:55:09.815Z,20.50
2023-07-03T01:55:36.701Z,20.60
2023-07-03T01:56:04.651Z,20.50
2023-07-03T01:56:29.859Z,20.50
2023-07-03T01:56:52.688Z,20.50
2023-07-03T01:57:17.820Z,20.50
2023-07-03T01:57:45.678Z,20.50
2023-07-03T01:58:10.969Z,20.50
2023-07-03T01:58:36.223Z,20.50
2023-07-03T01:59:01.484Z,20.50
2023-07-03T01:59:26.045Z,20.50
2023-07-03T01:59:49.035Z,20.40
2023-07-03T02:00:15.314Z,20.40
2023-07-03T02:00:41.858Z,20.40
2023-07-03T02:01:06.706Z,20.40
2023-07-03T02:01:32.263Z,20.40
2023-07-03T02:01:59.446Z,20.40
2023-07-03T02:02:24.320Z,20.30
2023-07-03T02:02:48.308Z,20.30
2023-07-03T02:03:18.194Z,20.30
2023-07-03T02:03:44.087Z,20.30
2023-07-03T02:04:08.441Z,20.30
2023-07-03T02:04:33.392Z,20.30
2023-07-03T02:04:59.522Z,20.30
2023-07-03T02:05:24.065Z,20.30
2023-07-03T02:05:46.840Z,20.30
2023-07-03T02:06:15.416Z,20.30
2023-07-03T02:06:39.236Z,20.30
2023-07-03T02:07:03.156Z,20.30
2023-07-03T02:07:26.292Z,20.20
2023-07-03T02:07:49.163Z,20.30
2023-07-03T02:08:15.231Z,20.30
2023-07-03T02:08:38.137Z,20.30
2023-07-03T02:09:01.053Z,20.30
2023-07-03T02:09:23.833Z,20.30
2023-07-03T02:09:47.116Z,20.30
2023-07-03T02:10:11.951Z,20.30
2023-07-03T02:10:34.776Z,20.30
2023-07-03T02:10:57.755Z,20.30
2023-07-03T02:11:21.505Z,20.30
2023-07-03T02:11:46.102Z,20.30
2023-07-03T02:12:11.212Z,20.30
2023-07-03T02:12:34.104Z,20.30
2023-07-03T02:12:57.495Z,20.30
2023-07-03T02:13:20.288Z,20.30
2023-07-03T02:13:43.486Z,20.30
2023-07-03T02:14:07.912Z,20.30
2023-07-03T02:14:30.680Z,20.30
2023-07-03T02:14:53.658Z,20.30
2023-07-03T02:15:16.623Z,20.40
2023-07-03T02:15:39.482Z,20.30
2023-07-03T02:16:02.418Z,20.40
2023-07-03T02:16:25.567Z,20.40
2023-07-03T02:16:48.973Z,20.30
2023-07-03T02:17:13.427Z,20.30
2023-07-03T02:17:37.586Z,20.30
2023-07-03T02:18:00.616Z,20.30
2023-07-03T02:18:24.617Z,20.30
2023-07-03T02:18:48.245Z,20.30
2023-07-03T02:19:15.011Z,20.30
2023-07-03T02:19:37.894Z,20.20
2023-07-03T02:20:00.613Z,20.20
2023-07-03T02:20:23.392Z,20.20
2023-07-03T02:20:46.370Z,20.20
2023-07-03T02:21:09.323Z,20.10
2023-07-03T02:21:32.174Z,20.10
2023-07-03T02:21:55.407Z,20.10
2023-07-03T02:22:18.143Z,20.10
2023-07-03T02:22:40.940Z,20.10
2023-07-03T02:23:06.940Z,20.10
2023-07-03T02:23:30.155Z,20.10
2023-07-03T02:23:52.954Z,20.10
2023-07-03T02:24:15.745Z,20.10
2023-07-03T02:24:38.689Z,20.10
2023-07-03T02:25:01.564Z,20.00
2023-07-03T02:25:26.015Z,20.00
2023-07-03T02:25:49.160Z,20.00
2023-07-03T02:26:12.424Z,20.00
2023-07-03T02:26:35.286Z,20.00
2023-07-03T02:26:58.136Z,20.00
2023-07-03T02:27:21.095Z,20.00
2023-07-03T02:27:46.791Z,20.00
2023-07-03T02:28:09.824Z,20.00
2023-07-03T02:28:32.647Z,19.90
2023-07-03T02:28:55.567Z,19.90
2023-07-03T02:29:18.346Z,19.90
2023-07-03T02:29:42.216Z,19.90
2023-07-03T02:30:06.482Z,19.90
2023-07-03T02:30:29.323Z,19.90
2023-07-03T02:30:52.200Z,19.80
2023-07-03T02:31:15.124Z,19.80
2023-07-03T02:31:38.158Z,19.80
2023-07-03T02:32:00.848Z,19.90
2023-07-03T02:32:23.636Z,19.90
2023-07-03T02:32:46.472Z,19.80
2023-07-03T02:33:09.364Z,19.80
2023-07-03T02:33:32.397Z,19.80
2023-07-03T02:33:55.226Z,19.80
2023-07-03T02:34:18.147Z,19.80
2023-07-03T02:34:40.890Z,19.80
2023-07-03T02:35:04.577Z,19.80
2023-07-03T02:35:27.504Z,19.80
2023-07-03T02:35:50.613Z,19.80
2023-07-03T02:36:13.821Z,19.70
2023-07-03T02:36:39.262Z,19.80
2023-07-03T02:37:02.184Z,19.70
2023-07-03T02:37:24.957Z,19.70
2023-07-03T02:37:49.395Z,19.70
2023-07-03T02:38:12.259Z,19.70
2023-07-03T02:38:35.105Z,19.70
2023-07-03T02:38:59.095Z,19.70
2023-07-03T02:39:21.874Z,19.70
2023-07-03T02:39:44.791Z,19.70
2023-07-03T02:40:14.569Z,19.70
2023-07-03T02:40:39.041Z,19.70
2023-07-03T02:41:03.588Z,19.80
2023-07-03T02:41:26.358Z,19.70
2023-07-03T02:41:49.298Z,19.70
2023-07-03T02:42:12.080Z,19.70
2023-07-03T02:42:34.931Z,19.70
2023-07-03T02:42:58.628Z,19.70
2023-07-03T02:43:21.428Z,19.80
2023-07-03T02:43:44.290Z,19.70
2023-07-03T02:44:07.106Z,19.70
2023-07-03T02:44:29.906Z,19.80
2023-07-03T02:44:52.860Z,19.80
2023-07-03T02:45:15.644Z,19.80
2023-07-03T02:45:39.169Z,19.80
2023-07-03T02:46:04.200Z,19.80
2023-07-03T02:46:27.146Z,19.80
2023-07-03T02:46:50.192Z,19.80
2023-07-03T02:47:13.284Z,19.80
2023-07-03T02:47:36.762Z,19.90
2023-07-03T02:48:00.010Z,19.80
2023-07-03T02:48:22.943Z,19.90
2023-07-03T02:48:46.346Z,19.90
2023-07-03T02:49:09.201Z,19.90
2023-07-03T02:49:32.069Z,19.90
2023-07-03T02:49:54.889Z,19.80
2023-07-03T02:50:17.804Z,19.90
2023-07-03T02:50:40.541Z,19.90
2023-07-03T02:51:03.463Z,19.80
2023-07-03T02:51:26.293Z,19.90
2023-07-03T02:51:49.081Z,19.90
2023-07-03T02:52:12.055Z,19.90
2023-07-03T02:52:34.980Z,19.90
2023-07-03T02:52:57.726Z,19.80
2023-07-03T02:53:20.605Z,19.80
2023-07-03T02:53:43.445Z,19.80
2023-07-03T02:54:06.326Z,19.40
2023-07-03T02:54:29.078Z,19.80
2023-07-03T02:54:51.991Z,19.80
2023-07-03T02:55:15.426Z,19.80
2023-07-03T02:55:42.883Z,19.80
2023-07-03T02:56:06.025Z,19.80
2023-07-03T02:56:29.555Z,19.80
2023-07-03T02:56:52.405Z,19.80
2023-07-03T02:57:15.225Z,19.80
2023-07-03T02:57:38.025Z,19.80
2023-07-03T02:58:00.862Z,19.80
2023-07-03T02:58:25.023Z,19.70
2023-07-03T02:58:47.892Z,19.70
2023-07-03T02:59:10.761Z,19.80
2023-07-03T02:59:33.546Z,19.70
2023-07-03T02:59:56.474Z,19.70
2023-07-03T03:00:19.324Z,19.70
2023-07-03T03:00:43.127Z,19.70
2023-07-03T03:01:06.217Z,19.70
2023-07-03T03:01:32.078Z,19.70
2023-07-03T03:01:54.876Z,19.70
2023-07-03T03:02:17.713Z,19.70
2023-07-03T03:02:40.658Z,19.70
2023-07-03T03:03:03.947Z,19.70
2023-07-03T03:03:27.152Z,19.70
2023-07-03T03:03:50.354Z,19.70
2023-07-03T03:04:13.509Z,19.60
2023-07-03T03:04:36.425Z,19.70
2023-07-03T03:04:59.254Z,19.60
2023-07-03T03:05:23.187Z,19.60
2023-07-03T03:05:45.968Z,19.70
2023-07-03T03:06:08.687Z,19.60
2023-07-03T03:06:31.477Z,19.70
2023-07-03T03:06:57.049Z,19.70
2023-07-03T03:07:19.840Z,19.70
2023-07-03T03:07:42.681Z,19.70
2023-07-03T03:08:06.023Z,19.70
2023-07-03T03:08:28.756Z,19.70
2023-07-03T03:08:54.705Z,19.70
2023-07-03T03:09:17.527Z,19.70
2023-07-03T03:09:41.360Z,19.70
2023-07-03T03:10:05.057Z,19.70
2023-07-03T03:10:27.788Z,19.70
2023-07-03T03:10:52.606Z,19.80
2023-07-03T03:11:15.676Z,19.80
2023-07-03T03:11:38.449Z,19.80
2023-07-03T03:12:01.212Z,19.80
2023-07-03T03:12:24.170Z,19.80
2023-07-03T03:12:49.235Z,19.80
2023-07-03T03:13:15.021Z,19.80
2023-07-03T03:13:37.851Z,19.80
2023-07-03T03:14:00.650Z,19.80
2023-07-03T03:14:23.365Z,19.80
2023-07-03T03:14:46.343Z,19.80
2023-07-03T03:15:09.760Z,19.80
2023-07-03T03:15:35.583Z,19.80
2023-07-03T03:15:59.131Z,19.80
2023-07-03T03:16:21.994Z,19.90
2023-07-03T03:16:44.837Z,19.80
2023-07-03T03:17:07.841Z,19.90
2023-07-03T03:17:30.831Z,19.80
2023-07-03T03:17:53.822Z,19.90
2023-07-03T03:18:16.596Z,19.90
2023-07-03T03:18:39.364Z,19.90
2023-07-03T03:19:02.948Z,19.90
2023-07-03T03:19:25.899Z,19.80
2023-07-03T03:19:51.405Z,19.80
2023-07-03T03:20:15.265Z,19.80
2023-07-03T03:20:38.270Z,19.80
2023-07-03T03:21:01.039Z,19.80
2023-07-03T03:21:24.091Z,19.80
2023-07-03T03:21:51.644Z,19.80
2023-07-03T03:22:14.621Z,19.70
2023-07-03T03:22:37.407Z,19.70
2023-07-03T03:23:00.227Z,19.60
2023-07-03T03:23:23.092Z,19.60
2023-07-03T03:23:47.169Z,19.60
2023-07-03T03:24:10.035Z,19.60
2023-07-03T03:24:32.870Z,19.60
2023-07-03T03:24:55.683Z,19.60
2023-07-03T03:25:18.463Z,19.60
2023-07-03T03:25:41.256Z,19.50
2023-07-03T03:26:08.249Z,19.50
2023-07-03T03:26:31.107Z,19.50
2023-07-03T03:26:54.040Z,19.50
2023-07-03T03:27:17.384Z,19.50
2023-07-03T03:27:40.444Z,19.50
2023-07-03T03:28:03.456Z,19.50
2023-07-03T03:28:26.285Z,19.50
2023-07-03T03:28:49.180Z,19.50
2023-07-03T03:29:11.996Z,19.60
2023-07-03T03:29:34.937Z,19.60
2023-07-03T03:29:57.778Z,19.60
2023-07-03T03:30:20.631Z,19.60
2023-07-03T03:30:44.469Z,19.60
2023-07-03T03:31:07.445Z,19.60
2023-07-03T03:31:30.220Z,19.60
2023-07-03T03:31:53.022Z,19.70
2023-07-03T03:32:15.948Z,19.70
2023-07-03T03:32:38.843Z,19.70
2023-07-03T03:33:01.793Z,19.70
2023-07-03T03:33:24.645Z,19.70
2023-07-03T03:33:47.489Z,19.70
2023-07-03T03:34:10.369Z,19.70
2023-07-03T03:34:35.794Z,19.70
2023-07-03T03:34:58.606Z,19.70
2023-07-03T03:35:21.460Z,19.80
2023-07-03T03:35:45.991Z,19.70
2023-07-03T03:36:08.863Z,19.80
2023-07-03T03:36:34.355Z,19.80
2023-07-03T03:36:57.851Z,19.80
2023-07-03T03:37:20.640Z,19.80
2023-07-03T03:37:43.467Z,19.90
2023-07-03T03:38:06.294Z,19.80
2023-07-03T03:38:29.125Z,19.90
2023-07-03T03:38:51.897Z,19.90
2023-07-03T03:39:16.810Z,19.90
2023-07-03T03:39:39.607Z,19.90
2023-07-03T03:40:02.354Z,19.90
2023-07-03T03:40:25.190Z,19.90
2023-07-03T03:40:54.726Z,19.90
2023-07-03T03:41:19.070Z,19.90
2023-07-03T03:41:41.938Z,19.90
2023-07-03T03:42:05.414Z,19.90
2023-07-03T03:42:28.216Z,19.90
2023-07-03T03:42:51.019Z,19.90
2023-07-03T03:43:13.829Z,19.90
2023-07-03T03:43:36.687Z,19.90
2023-07-03T03:44:00.544Z,19.90
2023-07-03T03:44:23.445Z,19.90
2023-07-03T03:44:46.299Z,19.90
2023-07-03T03:45:09.583Z,19.90
2023-07-03T03:45:32.394Z,19.90
2023-07-03T03:45:57.422Z,19.90
2023-07-03T03:46:20.391Z,19.80
2023-07-03T03:46:43.298Z,19.90
2023-07-03T03:47:06.470Z,19.90
2023-07-03T03:47:29.400Z,19.90
2023-07-03T03:47:53.051Z,19.90
2023-07-03T03:48:16.119Z,20.00
2023-07-03T03:48:39.138Z,20.00
2023-07-03T03:49:01.998Z,20.00
2023-07-03T03:49:24.861Z,20.10
2023-07-03T03:49:48.222Z,20.00
2023-07-03T03:50:11.494Z,20.00
2023-07-03T03:50:34.234Z,20.10
2023-07-03T03:50:57.171Z,20.00
2023-07-03T03:51:22.469Z,20.00
2023-07-03T03:51:45.229Z,20.00
2023-07-03T03:52:08.535Z,20.00
2023-07-03T03:52:31.345Z,20.00
2023-07-03T03:52:54.602Z,20.00
2023-07-03T03:53:17.460Z,20.00
2023-07-03T03:53:40.693Z,20.00
2023-07-03T03:54:04.034Z,20.00
2023-07-03T03:54:30.639Z,20.00
2023-07-03T03:54:53.584Z,20.00
2023-07-03T03:55:16.483Z,20.00
2023-07-03T03:55:39.262Z,20.00
2023-07-03T03:56:02.129Z,20.00
2023-07-03T03:56:28.786Z,20.00
2023-07-03T03:56:51.600Z,20.00
2023-07-03T03:57:16.788Z,20.00
2023-07-03T03:57:39.483Z,20.00
2023-07-03T03:58:02.283Z,19.90
2023-07-03T03:58:26.307Z,19.90
2023-07-03T03:58:49.257Z,19.90
2023-07-03T03:59:11.984Z,20.20
2023-07-03T03:59:34.890Z,20.00
2023-07-03T03:59:57.901Z,19.90
2023-07-03T04:00:21.386Z,19.90
2023-07-03T04:00:44.227Z,19.90
2023-07-03T04:01:07.043Z,20.00
2023-07-03T04:01:30.499Z,20.00
2023-07-03T04:01:53.386Z,20.00
2023-07-03T04:02:17.514Z,20.00
2023-07-03T04:02:40.608Z,20.00
2023-07-03T04:03:03.605Z,20.00
2023-07-03T04:03:28.880Z,20.00
2023-07-03T04:03:51.702Z,20.10
2023-07-03T04:04:15.368Z,20.10
2023-07-03T04:04:38.495Z,20.00
2023-07-03T04:05:02.461Z,20.10
2023-07-03T04:05:25.435Z,20.10
2023-07-03T04:05:49.117Z,20.10
2023-07-03T04:06:12.507Z,20.10
2023-07-03T04:06:39.169Z,20.10
2023-07-03T04:07:03.312Z,20.10
2023-07-03T04:07:26.080Z,20.10
2023-07-03T04:07:48.984Z,20.10
2023-07-03T04:08:11.734Z,20.10
2023-07-03T04:08:34.559Z,20.10
2023-07-03T04:09:00.142Z,20.10
2023-07-03T04:09:23.215Z,20.10
2023-07-03T04:09:46.063Z,20.10
2023-07-03T04:10:09.559Z,20.00
2023-07-03T04:10:32.663Z,20.00
2023-07-03T04:10:58.620Z,20.00
2023-07-03T04:11:21.934Z,20.00
2023-07-03T04:11:46.211Z,20.00
2023-07-03T04:12:09.274Z,20.00
2023-07-03T04:12:32.119Z,20.00
2023-07-03T04:12:54.927Z,20.00
2023-07-03T04:13:17.695Z,20.00
2023-07-03T04:13:40.680Z,20.00
2023-07-03T04:14:03.711Z,20.00
2023-07-03T04:14:27.005Z,20.00
2023-07-03T04:14:52.516Z,20.00
2023-07-03T04:15:15.549Z,20.10
2023-07-03T04:15:38.912Z,20.10
2023-07-03T04:16:03.136Z,20.10
2023-07-03T04:16:27.009Z,20.10
2023-07-03T04:16:49.995Z,20.30
2023-07-03T04:17:12.867Z,20.10
2023-07-03T04:17:35.842Z,20.10
2023-07-03T04:17:58.666Z,20.10
2023-07-03T04:18:21.752Z,20.10
2023-07-03T04:18:44.553Z,20.20
2023-07-03T04:19:07.865Z,20.10
2023-07-03T04:19:30.872Z,20.10
2023-07-03T04:19:53.598Z,20.20
2023-07-03T04:20:16.388Z,20.20
2023-07-03T04:20:39.206Z,20.20
2023-07-03T04:21:02.026Z,20.10
2023-07-03T04:21:25.096Z,20.20
2023-07-03T04:21:47.893Z,20.10
2023-07-03T04:22:10.734Z,20.10
2023-07-03T04:22:33.491Z,20.10
2023-07-03T04:22:56.358Z,20.10
2023-07-03T04:23:19.590Z,20.10
2023-07-03T04:23:42.315Z,20.10
2023-07-03T04:24:06.137Z,20.20
2023-07-03T04:24:29.012Z,20.20
2023-07-03T04:24:51.827Z,20.20
2023-07-03T04:25:15.145Z,20.20
2023-07-03T04:25:40.432Z,20.20
2023-07-03T04:26:04.072Z,20.20
2023-07-03T04:26:26.897Z,20.10
2023-07-03T04:26:55.680Z,20.10
2023-07-03T04:27:19.302Z,20.10
2023-07-03T04:27:42.257Z,20.10
2023-07-03T04:28:07.757Z,20.10
2023-07-03T04:28:30.627Z,20.10
2023-07-03T04:28:53.631Z,20.60
2023-07-03T04:29:18.955Z,20.10
2023-07-03T04:29:41.876Z,20.10
2023-07-03T04:30:05.738Z,20.10
2023-07-03T04:30:28.803Z,20.10
2023-07-03T04:30:51.496Z,20.20
2023-07-03T04:31:15.566Z,20.10
2023-07-03T04:31:40.806Z,20.10
2023-07-03T04:32:03.946Z,20.10
2023-07-03T04:32:26.977Z,19.70
2023-07-03T04:32:56.083Z,20.20
2023-07-03T04:33:18.969Z,20.10
2023-07-03T04:33:44.257Z,20.10
2023-07-03T04:34:07.269Z,20.20
2023-07-03T04:34:30.131Z,20.10
2023-07-03T04:34:53.007Z,20.20
2023-07-03T04:35:16.565Z,20.20
2023-07-03T04:35:39.368Z,20.20
2023-07-03T04:36:02.361Z,20.20
2023-07-03T04:36:25.153Z,20.20
2023-07-03T04:36:49.210Z,20.20
2023-07-03T04:37:12.045Z,20.20
2023-07-03T04:37:35.825Z,20.20
2023-07-03T04:37:58.698Z,20.20
2023-07-03T04:38:25.282Z,20.20
2023-07-03T04:38:48.290Z,20.20
2023-07-03T04:39:11.125Z,20.20
2023-07-03T04:39:34.061Z,20.20
2023-07-03T04:39:57.675Z,20.30
2023-07-03T04:40:20.683Z,20.30
2023-07-03T04:40:43.405Z,20.30
2023-07-03T04:41:06.276Z,20.30
2023-07-03T04:41:29.270Z,20.30
2023-07-03T04:41:53.470Z,20.40
2023-07-03T04:42:16.212Z,20.40
2023-07-03T04:42:38.957Z,20.30
2023-07-03T04:43:01.735Z,20.40
2023-07-03T04:43:27.731Z,20.40
2023-07-03T04:43:52.841Z,20.40
2023-07-03T04:44:15.636Z,20.40
2023-07-03T04:44:38.507Z,20.40
2023-07-03T04:45:03.320Z,20.40
2023-07-03T04:45:27.280Z,20.50
2023-07-03T04:45:52.781Z,20.50
2023-07-03T04:46:15.963Z,20.60
2023-07-03T04:46:40.256Z,20.60
2023-07-03T04:47:06.502Z,20.60
2023-07-03T04:47:29.300Z,20.60
2023-07-03T04:47:52.255Z,20.60
2023-07-03T04:48:15.205Z,20.50
2023-07-03T04:48:38.054Z,20.60
2023-07-03T04:49:01.769Z,20.60
2023-07-03T04:49:27.901Z,20.60
2023-07-03T04:49:50.753Z,20.60
2023-07-03T04:50:17.555Z,20.70
2023-07-03T04:50:40.324Z,20.70
2023-07-03T04:51:05.212Z,20.70
2023-07-03T04:51:32.085Z,20.70
2023-07-03T04:51:56.183Z,20.70
2023-07-03T04:52:21.023Z,20.70
2023-07-03T04:52:45.350Z,20.80
2023-07-03T04:53:08.155Z,20.80
2023-07-03T04:53:32.766Z,20.80
2023-07-03T04:53:55.668Z,20.90
2023-07-03T04:54:21.345Z,20.90
2023-07-03T04:54:44.143Z,20.90
2023-07-03T04:55:09.671Z,20.90
2023-07-03T04:55:32.664Z,21.00
2023-07-03T04:55:55.891Z,21.00
2023-07-03T04:56:18.945Z,21.00
2023-07-03T04:56:44.035Z,21.10
2023-07-03T04:57:09.049Z,21.10
2023-07-03T04:57:31.887Z,21.20
2023-07-03T04:57:54.695Z,21.30
2023-07-03T04:58:17.565Z,21.40
2023-07-03T04:58:40.548Z,21.40
2023-07-03T04:59:03.383Z,21.40
2023-07-03T04:59:26.095Z,21.50
2023-07-03T04:59:49.989Z,21.60
2023-07-03T05:00:17.537Z,21.60
2023-07-03T05:00:41.512Z,21.70
2023-07-03T05:01:06.191Z,21.70
2023-07-03T05:01:31.551Z,21.70
2023-07-03T05:01:54.700Z,21.80
2023-07-03T05:02:19.662Z,21.80
2023-07-03T05:02:43.074Z,21.80
2023-07-03T05:03:06.115Z,21.90
2023-07-03T05:03:29.123Z,22.00
2023-07-03T05:03:52.043Z,22.00
2023-07-03T05:04:14.971Z,22.00
2023-07-03T05:04:38.243Z,22.10
2023-07-03T05:05:01.198Z,22.10